昆明 の空港の天気 - METARとTAF

昆明巫家餽国際空港 ( ZPPP / KMG ) - 中国 雲南省昆明市
飛行場実況気象(Metar)
観測時間01/23 16:00 CST (01/23 08:00 UTC)
風向・風速南西 8m/s
視程10km以上
天気現象
なし
気温17℃
湿度27%
気圧1014hPa
METARZPPP 230800Z 22008MPS CAVOK 17/M02 Q1014 NOSIG
過去の天気等 Google飛行場航空写真 Wunderground天気予報

過去48時間のMETAR

飛行場予報(TAF)
発表時間: 1/23 09:09 CST (1/23 01:09 UTC)
予報対象時間: 23日14時 CST ~ 24日14時 CST
風向・風速南西 6m/s
視程10km以上
少しの雲 雲底高度 790m
TAF ZPPP 230109Z 2306/2406 22006MPS 9999 FEW026 TX17/2308Z TN03/2323Z